Time;durP1;ratioP1;P1;durP2;ratioP2;P2;SDS_P1;SDS_P2;PMS_P1;PMS_P2;Temp;Humidity;BMP_temperature;BMP_pressure;BME280_temperature;BME280_humidity;BME280_pressure;Samples;Min_cycle;Max_cycle;Signal;HPM_P1;HPM_P2
2023/03/30 00:01:13;;;;;;;3.28;1.95;;;;;;;2.90;96.07;100863.88;5060409;28;20116;-68
2023/03/30 00:03:41;;;;;;;3.40;2.20;;;;;;;2.89;95.91;100860.38;5080393;28;20036;-68
2023/03/30 00:06:09;;;;;;;2.00;1.75;;;;;;;2.63;97.68;100864.69;5080693;28;20016;-68
2023/03/30 00:08:35;;;;;;;2.67;2.00;;;;;;;2.39;98.64;100836.00;5083362;28;20441;-68
2023/03/30 00:11:08;;;;;;;2.08;1.88;;;;;;;2.86;97.07;100852.69;5082295;28;20028;-68
2023/03/30 00:13:36;;;;;;;2.40;2.00;;;;;;;2.66;97.89;100843.97;5063962;28;20027;-68
2023/03/30 00:16:02;;;;;;;3.42;2.08;;;;;;;2.98;96.58;100862.16;5064165;28;20024;-67
2023/03/30 00:18:28;;;;;;;2.20;2.00;;;;;;;2.82;95.73;100836.22;5071962;28;20135;-68
2023/03/30 00:20:54;;;;;;;2.80;1.95;;;;;;;2.84;95.92;100854.66;5077103;28;20025;-68
2023/03/30 00:23:21;;;;;;;3.47;2.10;;;;;;;2.81;95.67;100842.53;5060504;28;20047;-67
2023/03/30 00:25:47;;;;;;;2.10;1.90;;;;;;;2.85;96.40;100850.16;5045922;28;20458;-67
2023/03/30 00:28:12;;;;;;;2.90;2.10;;;;;;;2.83;95.81;100851.16;5062848;28;20037;-68
2023/03/30 00:30:38;;;;;;;2.92;2.25;;;;;;;2.87;95.83;100842.91;5064542;28;20045;-68
2023/03/30 00:33:03;;;;;;;2.60;2.40;;;;;;;2.58;96.89;100812.84;5064965;28;20033;-68
2023/03/30 00:35:31;;;;;;;2.63;1.92;;;;;;;2.52;98.10;100829.38;5046383;28;20029;-68
2023/03/30 00:38:00;;;;;;;2.95;2.10;;;;;;;2.65;97.64;100828.16;5044856;28;20159;-68
2023/03/30 00:40:27;;;;;;;2.33;2.10;;;;;;;2.65;98.07;100823.72;5061911;28;20017;-68
2023/03/30 00:43:01;;;;;;;2.65;2.10;;;;;;;2.62;97.33;100816.03;5062767;28;20082;-68
2023/03/30 00:45:28;;;;;;;2.05;1.85;;;;;;;2.57;97.96;100818.28;5063317;28;20040;-68
2023/03/30 00:48:03;;;;;;;2.60;2.00;;;;;;;2.28;98.79;100794.50;5063870;28;20048;-68
2023/03/30 00:50:34;;;;;;;;;;;;;;;2.63;98.72;100814.22;5066796;28;20020;-68
2023/03/30 00:53:05;;;;;;;2.03;1.80;;;;;;;2.48;98.58;100797.91;5064326;28;19919;-68
2023/03/30 00:55:35;;;;;;;3.08;1.80;;;;;;;2.78;97.08;100808.25;5063087;28;20051;-68
2023/03/30 00:58:00;;;;;;;1.55;1.25;;;;;;;2.41;98.67;100812.75;5065187;28;20024;-68
2023/03/30 01:00:26;;;;;;;2.85;1.70;;;;;;;2.60;98.41;100815.34;5062442;28;20486;-68
2023/03/30 01:02:57;;;;;;;1.85;1.33;;;;;;;2.73;97.84;100815.00;5066953;28;20148;-68
2023/03/30 01:05:24;;;;;;;2.10;1.50;;;;;;;2.54;97.70;100816.75;5094372;28;20099;-68
2023/03/30 01:07:50;;;;;;;2.08;1.40;;;;;;;2.86;96.86;100806.69;5035395;28;20041;-68
2023/03/30 01:10:16;;;;;;;1.70;1.20;;;;;;;2.73;96.88;100809.69;5030692;28;20063;-68
2023/03/30 01:12:43;;;;;;;1.70;1.30;;;;;;;2.78;96.39;100802.94;5078522;28;20028;-67
2023/03/30 01:15:15;;;;;;;1.40;1.20;;;;;;;2.54;97.70;100798.16;5082111;28;20101;-67
2023/03/30 01:17:53;;;;;;;1.10;1.00;;;;;;;2.49;97.27;100797.78;5065020;28;20040;-68
2023/03/30 01:20:34;;;;;;;1.67;1.20;;;;;;;2.57;97.03;100792.56;5084408;28;20028;-68
2023/03/30 01:23:36;;;;;;;1.70;1.00;;;;;;;2.49;97.49;100792.47;5066203;28;20494;-68
2023/03/30 01:26:15;;;;;;;1.02;0.77;;;;;;;2.39;97.47;100796.16;5084735;28;20036;-68
2023/03/30 01:28:45;;;;;;;1.00;0.90;;;;;;;2.57;97.13;100794.38;5065314;28;20020;-68
2023/03/30 01:31:44;;;;;;;0.90;0.70;;;;;;;2.55;96.03;100799.84;5084261;28;20025;-68
2023/03/30 01:34:19;;;;;;;0.80;0.70;;;;;;;2.52;96.57;100794.00;5083825;28;20039;-68
2023/03/30 01:37:02;;;;;;;0.75;0.60;;;;;;;2.32;96.99;100779.97;5084209;28;20512;-68
2023/03/30 01:39:36;;;;;;;0.80;0.60;;;;;;;2.28;97.26;100787.38;5065611;28;20028;-68
2023/03/30 01:42:26;;;;;;;1.05;0.60;;;;;;;2.61;96.65;100778.97;5083397;28;20028;-68
2023/03/30 01:45:10;;;;;;;0.70;0.40;;;;;;;2.41;96.64;100784.38;5082121;28;20016;-67
2023/03/30 01:47:42;;;;;;;0.52;0.50;;;;;;;2.55;96.08;100772.44;5078472;28;20024;-67
2023/03/30 01:50:12;;;;;;;1.00;0.50;;;;;;;2.54;95.05;100762.81;5065148;28;20036;-67
2023/03/30 01:52:43;;;;;;;0.60;0.40;;;;;;;2.45;95.75;100766.34;5056767;28;20119;-68
2023/03/30 01:55:18;;;;;;;0.88;0.60;;;;;;;2.42;96.23;100754.22;5078112;28;20032;-68
2023/03/30 01:57:54;;;;;;;0.47;0.43;;;;;;;2.44;96.33;100752.22;5083920;28;20044;-68
2023/03/30 02:00:23;;;;;;;0.70;0.60;;;;;;;2.43;94.91;100750.56;5083018;28;20037;-68
2023/03/30 02:02:54;;;;;;;0.80;0.50;;;;;;;2.48;95.86;100755.41;5065610;28;20026;-68
2023/03/30 02:05:23;;;;;;;1.10;0.60;;;;;;;2.40;94.66;100732.25;5065215;28;20097;-68
2023/03/30 02:07:52;;;;;;;0.40;0.40;;;;;;;2.43;95.00;100744.41;5064775;28;20044;-68
2023/03/30 02:10:22;;;;;;;0.80;0.60;;;;;;;2.64;94.91;100744.97;5083630;28;20024;-68
2023/03/30 02:12:49;;;;;;;0.85;0.40;;;;;;;2.57;94.28;100741.25;5081646;28;20025;-67
2023/03/30 02:15:17;;;;;;;1.77;0.50;;;;;;;2.62;94.21;100743.47;5062390;28;20032;-68
2023/03/30 02:17:46;;;;;;;0.63;0.40;;;;;;;2.39;93.93;100716.50;5063355;28;20514;-67
2023/03/30 02:20:12;;;;;;;1.13;0.60;;;;;;;2.53;94.93;100743.38;5047242;28;20028;-67
2023/03/30 02:22:38;;;;;;;0.75;0.40;;;;;;;2.55;94.84;100736.09;5080919;28;20016;-68
2023/03/30 02:25:05;;;;;;;0.60;0.50;;;;;;;2.59;94.49;100731.31;5063239;28;20506;-67
2023/03/30 02:27:31;;;;;;;1.08;0.40;;;;;;;2.47;94.86;100729.84;5057558;28;20434;-68
2023/03/30 02:29:57;;;;;;;0.70;0.50;;;;;;;2.71;94.54;100724.78;5059911;28;20029;-68
2023/03/30 02:32:26;;;;;;;1.17;0.60;;;;;;;2.92;92.99;100726.34;5058998;28;20032;-66
2023/03/30 02:35:06;;;;;;;0.77;0.40;;;;;;;2.37;94.86;100719.28;5061992;28;20112;-68
2023/03/30 02:38:08;;;;;;;0.68;0.50;;;;;;;2.47;94.90;100713.91;5059027;28;20025;-68
2023/03/30 02:40:40;;;;;;;1.42;0.40;;;;;;;2.65;94.43;100719.25;5060724;28;20107;-68
2023/03/30 02:43:17;;;;;;;0.80;0.60;;;;;;;2.67;93.53;100707.50;5061643;28;20029;-68
2023/03/30 02:46:05;;;;;;;1.75;0.70;;;;;;;2.72;93.60;100704.41;5058511;28;20033;-67
2023/03/30 02:48:50;;;;;;;0.55;0.50;;;;;;;2.21;95.38;100703.16;5060310;28;20112;-67
2023/03/30 02:51:24;;;;;;;1.48;0.60;;;;;;;2.42;94.60;100700.22;5058876;28;20025;-67
2023/03/30 02:54:05;;;;;;;0.85;0.50;;;;;;;2.87;93.80;100702.03;5059313;28;20108;-68
2023/03/30 02:57:21;;;;;;;0.70;0.47;;;;;;;2.56;94.39;100692.59;5059115;28;20036;-67
2023/03/30 03:00:09;;;;;;;0.60;0.50;;;;;;;2.52;94.89;100688.59;4998568;28;20038;-68
2023/03/30 03:02:40;;;;;;;0.93;0.65;;;;;;;2.68;94.77;100689.72;5039151;28;20131;-68
2023/03/30 03:05:11;;;;;;;1.08;0.60;;;;;;;2.62;94.01;100659.31;5040977;28;20102;-68
2023/03/30 03:07:38;;;;;;;0.75;0.47;;;;;;;2.88;92.67;100679.78;5041111;28;20028;-68
2023/03/30 03:10:05;;;;;;;0.73;0.57;;;;;;;2.92;93.05;100681.19;5038976;28;20040;-68
2023/03/30 03:12:31;;;;;;;0.82;0.50;;;;;;;2.64;94.30;100680.41;5039339;28;20025;-67
2023/03/30 03:14:57;;;;;;;0.68;0.60;;;;;;;2.74;93.56;100679.34;5022740;28;20039;-68
2023/03/30 03:17:23;;;;;;;1.38;0.70;;;;;;;2.62;94.78;100674.41;5074075;28;20037;-67
2023/03/30 03:19:49;;;;;;;1.00;0.57;;;;;;;2.53;95.40;100670.84;5046550;28;20028;-67
2023/03/30 03:22:15;;;;;;;0.60;0.40;;;;;;;2.83;93.92;100670.47;5062270;28;20036;-67
2023/03/30 03:24:40;;;;;;;0.80;0.57;;;;;;;2.63;94.41;100658.31;5061417;28;20049;-68
2023/03/30 03:27:07;;;;;;;1.38;0.65;;;;;;;2.58;94.74;100620.72;5064310;28;20035;-68
2023/03/30 03:29:33;;;;;;;0.90;0.57;;;;;;;2.48;95.18;100636.72;5094521;28;20040;-68
2023/03/30 03:31:59;;;;;;;1.15;0.60;;;;;;;2.26;97.29;100642.50;5066158;28;20033;-68
2023/03/30 03:34:25;;;;;;;0.60;0.47;;;;;;;2.86;94.45;100628.63;5059158;28;20433;-67
2023/03/30 03:36:52;;;;;;;0.90;0.60;;;;;;;2.49;95.04;100611.03;5045296;28;20028;-68
2023/03/30 03:39:18;;;;;;;0.98;0.55;;;;;;;2.74;95.49;100631.50;5080649;28;20433;-67
2023/03/30 03:41:43;;;;;;;0.98;0.55;;;;;;;2.45;96.66;100614.97;5064908;28;20029;-68
2023/03/30 03:44:09;;;;;;;0.68;0.47;;;;;;;2.54;95.61;100624.69;5081675;28;20047;-68
2023/03/30 03:46:34;;;;;;;0.90;0.50;;;;;;;2.59;96.38;100627.72;5063765;28;20036;-68
2023/03/30 03:49:00;;;;;;;0.75;0.50;;;;;;;2.85;95.82;100634.91;5047134;28;20030;-67
2023/03/30 03:51:25;;;;;;;0.60;0.55;;;;;;;2.95;94.59;100633.03;5065820;28;20029;-67
2023/03/30 03:53:52;;;;;;;1.13;0.60;;;;;;;2.78;94.93;100624.94;5069105;28;20024;-68
2023/03/30 03:56:19;;;;;;;1.00;0.50;;;;;;;2.96;94.57;100619.56;5067478;28;20084;-68
2023/03/30 03:58:45;;;;;;;0.95;0.57;;;;;;;2.91;93.96;100616.53;5087079;28;20048;-68
2023/03/30 04:01:13;;;;;;;0.82;0.55;;;;;;;2.81;95.36;100627.28;5071259;28;20131;-68
2023/03/30 04:03:39;;;;;;;0.70;0.50;;;;;;;2.80;94.86;100620.28;5089463;28;20040;-68
2023/03/30 04:06:05;;;;;;;1.10;0.60;;;;;;;2.88;95.74;100619.53;5072273;28;20019;-68
2023/03/30 04:08:30;;;;;;;1.05;0.45;;;;;;;2.87;94.29;100609.88;5063738;28;20032;-68
2023/03/30 04:11:03;;;;;;;0.47;0.40;;;;;;;3.04;94.55;100609.00;5084437;28;20100;-68
2023/03/30 04:13:29;;;;;;;0.60;0.50;;;;;;;3.00;95.22;100607.63;5066363;28;20032;-67
2023/03/30 04:15:54;;;;;;;0.70;0.50;;;;;;;2.75;95.18;100597.81;5044505;28;20055;-67
2023/03/30 04:18:20;;;;;;;0.65;0.50;;;;;;;2.80;95.73;100587.56;5062804;28;20444;-67
2023/03/30 04:20:48;;;;;;;0.73;0.63;;;;;;;2.74;96.74;100582.84;5061211;28;20053;-68
2023/03/30 04:23:20;;;;;;;0.70;0.60;;;;;;;2.85;96.22;100589.75;5061445;28;20032;-67
2023/03/30 04:25:46;;;;;;;1.30;0.60;;;;;;;3.23;94.73;100584.03;5080231;28;20037;-67
2023/03/30 04:28:11;;;;;;;1.52;0.60;;;;;;;2.81;96.52;100598.03;5084726;28;20092;-67
2023/03/30 04:30:37;;;;;;;0.65;0.60;;;;;;;3.18;94.76;100580.16;5061357;28;20013;-67
2023/03/30 04:33:03;;;;;;;0.73;0.60;;;;;;;3.25;94.57;100592.69;5084936;28;20032;-68
2023/03/30 04:35:33;;;;;;;1.27;0.65;;;;;;;3.23;94.66;100576.06;5058515;28;20112;-66
2023/03/30 04:37:59;;;;;;;0.70;0.60;;;;;;;3.16;95.22;100572.38;5078783;28;20048;-66
2023/03/30 04:40:25;;;;;;;1.40;0.73;;;;;;;3.00;95.92;100574.91;5081482;28;20062;-66
2023/03/30 04:42:51;;;;;;;1.25;0.60;;;;;;;3.14;95.73;100569.00;5046387;28;20036;-67
2023/03/30 04:45:17;;;;;;;0.40;0.40;;;;;;;2.92;96.42;100561.59;5063816;28;20027;-67
2023/03/30 04:47:44;;;;;;;0.95;0.60;;;;;;;3.02;97.36;100557.81;5075870;28;20037;-68
2023/03/30 04:50:10;;;;;;;0.70;0.60;;;;;;;2.91;97.06;100549.25;5068925;28;20036;-66
2023/03/30 04:52:35;;;;;;;0.60;0.50;;;;;;;2.94;98.04;100546.28;5076255;28;20400;-66
2023/03/30 04:55:01;;;;;;;1.00;0.60;;;;;;;3.03;97.20;100553.34;5064978;28;20092;-66
2023/03/30 04:57:27;;;;;;;0.90;0.50;;;;;;;3.18;97.52;100542.94;5062596;28;20100;-66
2023/03/30 04:59:52;;;;;;;0.60;0.60;;;;;;;3.09;96.89;100527.97;5063150;28;20049;-66
2023/03/30 05:02:17;;;;;;;0.40;0.40;;;;;;;2.68;98.98;100523.22;5059451;28;20524;-66
2023/03/30 05:04:43;;;;;;;1.00;0.70;;;;;;;3.24;96.03;100521.06;5042124;28;20025;-66
2023/03/30 05:07:09;;;;;;;0.55;0.55;;;;;;;3.29;95.87;100527.56;5059304;28;20028;-66
2023/03/30 05:09:35;;;;;;;0.70;0.70;;;;;;;3.28;96.05;100523.25;5057979;28;20094;-66
2023/03/30 05:12:00;;;;;;;0.85;0.70;;;;;;;3.48;94.75;100523.84;5059398;28;20032;-66
2023/03/30 05:14:26;;;;;;;0.73;0.70;;;;;;;3.25;96.66;100523.56;5040699;28;20052;-66
2023/03/30 05:16:51;;;;;;;1.65;0.68;;;;;;;3.30;96.16;100521.25;5057435;28;20044;-66
2023/03/30 05:19:17;;;;;;;1.58;0.70;;;;;;;3.50;95.36;100515.69;5058087;28;20037;-66
2023/03/30 05:21:42;;;;;;;1.30;0.50;;;;;;;2.91;98.24;100514.72;5040834;28;20036;-65
2023/03/30 05:24:08;;;;;;;0.85;0.70;;;;;;;3.19;97.45;100508.25;5059352;28;20105;-65
2023/03/30 05:26:33;;;;;;;1.20;0.70;;;;;;;2.95;98.86;100498.31;5058116;28;20087;-66
2023/03/30 05:28:59;;;;;;;0.70;0.70;;;;;;;3.16;98.24;100513.88;5058103;28;20025;-67
2023/03/30 05:31:24;;;;;;;0.60;0.52;;;;;;;3.06;98.82;100500.69;5058297;28;20033;-67
2023/03/30 05:33:51;;;;;;;0.55;0.40;;;;;;;2.88;99.19;100504.41;5057823;28;20063;-66
2023/03/30 05:36:17;;;;;;;1.15;0.70;;;;;;;3.39;98.07;100500.84;5055406;28;20055;-66
2023/03/30 05:38:42;;;;;;;1.40;0.70;;;;;;;3.17;97.93;100493.44;5041674;28;20056;-66
2023/03/30 05:41:08;;;;;;;1.15;0.60;;;;;;;3.24;97.19;100476.69;5061231;28;20033;-67
2023/03/30 05:43:33;;;;;;;0.80;0.77;;;;;;;3.56;95.69;100480.47;5068954;28;20124;-67
2023/03/30 05:46:00;;;;;;;0.70;0.70;;;;;;;3.48;96.42;100491.09;5062394;28;20377;-67
2023/03/30 05:48:25;;;;;;;0.77;0.68;;;;;;;3.38;96.05;100477.91;5061303;28;20021;-67
2023/03/30 05:50:51;;;;;;;1.40;0.70;;;;;;;3.53;96.93;100475.47;5058807;28;20040;-67
2023/03/30 05:53:16;;;;;;;0.90;0.68;;;;;;;3.35;97.46;100467.59;5056546;28;20029;-66
2023/03/30 05:55:45;;;;;;;0.95;0.85;;;;;;;3.23;99.85;100472.34;5059276;28;20037;-66
2023/03/30 05:58:11;;;;;;;1.33;0.82;;;;;;;3.14;99.56;100460.00;5059219;28;20035;-66
2023/03/30 06:00:37;;;;;;;0.90;0.80;;;;;;;3.49;98.08;100471.47;5059740;28;20108;-66
2023/03/30 06:03:03;;;;;;;0.98;0.85;;;;;;;3.52;98.60;100458.69;5041028;28;20056;-66
2023/03/30 06:05:32;;;;;;;1.05;0.95;;;;;;;3.59;96.87;100463.34;5024859;28;20028;-66
2023/03/30 06:07:59;;;;;;;1.48;0.93;;;;;;;3.19;99.56;100464.88;5060642;28;20416;-65
2023/03/30 06:10:25;;;;;;;1.70;1.02;;;;;;;3.18;99.79;100448.09;5060059;28;20096;-66
2023/03/30 06:12:50;;;;;;;0.77;0.77;;;;;;;2.98;100.00;100441.34;5059376;28;20028;-66
2023/03/30 06:15:16;;;;;;;0.98;0.85;;;;;;;3.30;99.73;100469.91;5059997;28;20028;-66
2023/03/30 06:17:41;;;;;;;1.48;1.00;;;;;;;3.49;99.65;100474.97;5061369;28;20127;-66
2023/03/30 06:20:11;;;;;;;1.48;0.85;;;;;;;3.22;100.00;100469.88;5059864;28;20037;-66
2023/03/30 06:22:37;;;;;;;1.25;1.08;;;;;;;3.25;100.00;100466.91;5058954;28;20087;-66
2023/03/30 06:25:03;;;;;;;2.78;0.98;;;;;;;3.18;100.00;100432.16;5043168;28;20097;-66
2023/03/30 06:27:31;;;;;;;1.20;0.95;;;;;;;3.36;100.00;100460.44;5058217;28;20071;-66
2023/03/30 06:29:57;;;;;;;1.02;0.90;;;;;;;3.52;99.87;100434.75;5060220;28;20101;-66
2023/03/30 06:32:23;;;;;;;1.10;1.00;;;;;;;3.59;99.28;100450.06;5059228;28;20064;-66
2023/03/30 06:34:48;;;;;;;1.70;1.05;;;;;;;3.50;100.00;100444.69;5040750;28;20507;-65
2023/03/30 06:37:15;;;;;;;2.10;1.10;;;;;;;3.43;100.00;100437.53;5059670;28;20057;-66
2023/03/30 06:39:40;;;;;;;1.00;0.80;;;;;;;3.41;100.00;100440.38;5057683;28;20025;-66
2023/03/30 06:42:06;;;;;;;1.30;1.10;;;;;;;3.58;100.00;100437.75;5058335;28;20444;-66
2023/03/30 06:44:33;;;;;;;1.30;1.10;;;;;;;3.32;100.00;100436.00;5059929;28;20051;-66
2023/03/30 06:46:59;;;;;;;1.67;1.38;;;;;;;3.47;100.00;100436.22;5054940;28;20031;-65
2023/03/30 06:49:25;;;;;;;1.67;1.20;;;;;;;3.36;100.00;100424.06;5054122;28;20036;-65
2023/03/30 06:51:50;;;;;;;1.30;1.10;;;;;;;3.59;100.00;100421.63;5056371;28;20032;-66
2023/03/30 06:54:19;;;;;;;2.10;1.23;;;;;;;3.60;100.00;100420.59;5057811;28;20029;-65
2023/03/30 06:56:45;;;;;;;1.23;1.02;;;;;;;3.52;100.00;100413.44;5058228;28;20037;-65
2023/03/30 06:59:12;;;;;;;2.70;1.48;;;;;;;3.55;100.00;100392.84;5058008;28;20490;-66
2023/03/30 07:01:37;;;;;;;1.80;1.40;;;;;;;3.74;100.00;100414.66;5057363;28;20017;-66
2023/03/30 07:04:03;;;;;;;1.48;1.38;;;;;;;3.88;100.00;100407.84;5056905;28;20553;-66
2023/03/30 07:06:28;;;;;;;1.10;1.00;;;;;;;3.79;100.00;100408.84;5040234;28;20048;-66
2023/03/30 07:08:54;;;;;;;1.85;1.30;;;;;;;3.88;100.00;100420.34;5057624;28;20402;-66
2023/03/30 07:11:21;;;;;;;2.08;1.30;;;;;;;4.06;98.88;100418.34;5043274;28;20033;-65
2023/03/30 07:13:46;;;;;;;1.50;1.20;;;;;;;3.86;100.00;100403.69;5063297;28;20039;-66
2023/03/30 07:16:12;;;;;;;1.67;1.40;;;;;;;4.03;99.45;100405.34;5040125;28;20033;-66
2023/03/30 07:18:37;;;;;;;1.50;1.00;;;;;;;3.68;100.00;100401.19;5056407;28;20025;-66
2023/03/30 07:21:03;;;;;;;1.50;1.33;;;;;;;3.63;100.00;100409.66;5056904;28;20466;-66
2023/03/30 07:23:28;;;;;;;2.72;1.08;;;;;;;3.59;100.00;100408.31;5040476;28;20036;-66
2023/03/30 07:25:54;;;;;;;1.60;0.93;;;;;;;3.48;100.00;100401.47;5057049;28;20041;-66
2023/03/30 07:28:20;;;;;;;1.48;1.38;;;;;;;3.71;100.00;100406.19;5057869;28;20468;-66
2023/03/30 07:30:46;;;;;;;1.10;1.00;;;;;;;3.32;100.00;100389.97;5057848;28;20029;-66
2023/03/30 07:33:11;;;;;;;2.25;1.40;;;;;;;3.73;100.00;100398.84;5057534;28;20140;-66
2023/03/30 07:35:45;;;;;;;1.52;1.10;;;;;;;3.79;100.00;100392.03;5056021;28;20112;-66
2023/03/30 07:38:13;;;;;;;1.38;1.23;;;;;;;3.72;100.00;100397.19;5055756;28;20039;-66
2023/03/30 07:40:39;;;;;;;1.20;1.10;;;;;;;3.56;100.00;100366.06;5056065;28;20040;-66
2023/03/30 07:43:06;;;;;;;1.23;1.13;;;;;;;3.63;100.00;100393.69;5056563;28;20081;-66
2023/03/30 07:45:31;;;;;;;1.70;1.38;;;;;;;3.88;100.00;100385.75;5055405;28;20021;-66
2023/03/30 07:47:57;;;;;;;1.33;0.95;;;;;;;4.13;100.00;100391.88;5055757;28;20033;-66
2023/03/30 07:50:24;;;;;;;1.30;1.20;;;;;;;4.12;100.00;100387.56;5056444;28;20491;-66
2023/03/30 07:52:50;;;;;;;1.42;1.17;;;;;;;4.18;100.00;100379.72;5058148;28;20021;-66
2023/03/30 07:55:16;;;;;;;1.02;0.90;;;;;;;3.72;100.00;100379.41;5057044;28;20029;-66
2023/03/30 07:57:43;;;;;;;1.92;1.10;;;;;;;3.92;100.00;100381.75;5058367;28;20119;-66
2023/03/30 08:00:09;;;;;;;1.10;1.00;;;;;;;3.79;100.00;100368.09;5057300;28;20068;-66
2023/03/30 08:02:35;;;;;;;1.60;1.10;;;;;;;3.75;100.00;100360.44;5053223;28;20557;-66
2023/03/30 08:05:01;;;;;;;2.08;0.93;;;;;;;3.90;100.00;100367.75;5058945;28;20099;-66
2023/03/30 08:07:27;;;;;;;1.65;1.30;;;;;;;3.92;100.00;100365.78;5058239;28;20546;-66
2023/03/30 08:09:53;;;;;;;0.95;0.85;;;;;;;3.76;100.00;100356.78;5058567;28;20108;-66
2023/03/30 08:12:18;;;;;;;1.42;1.27;;;;;;;3.51;100.00;100313.38;5056550;28;20359;-66
2023/03/30 08:14:44;;;;;;;1.25;1.10;;;;;;;4.26;100.00;100368.22;5061123;28;20059;-66
2023/03/30 08:17:11;;;;;;;1.10;1.00;;;;;;;4.09;100.00;100359.44;5061327;28;20048;-66
2023/03/30 08:19:36;;;;;;;1.88;1.10;;;;;;;4.51;100.00;100362.88;5055701;28;20108;-66
2023/03/30 08:22:02;;;;;;;1.95;1.10;;;;;;;4.15;100.00;100361.41;5056307;28;20081;-66
2023/03/30 08:24:27;;;;;;;1.38;1.00;;;;;;;4.33;100.00;100363.06;5057936;28;20025;-65
2023/03/30 08:26:53;;;;;;;1.27;1.02;;;;;;;4.32;100.00;100324.13;5057229;28;20159;-66
2023/03/30 08:29:19;;;;;;;1.80;1.10;;;;;;;4.33;100.00;100353.22;5056525;28;20051;-66
2023/03/30 08:31:45;;;;;;;1.10;0.90;;;;;;;4.45;100.00;100343.06;5056367;28;20168;-66
2023/03/30 08:34:11;;;;;;;0.88;0.77;;;;;;;4.13;100.00;100347.44;5058160;28;20021;-66
2023/03/30 08:36:36;;;;;;;0.70;0.70;;;;;;;3.86;100.00;100355.78;5057831;28;20098;-66
2023/03/30 08:39:03;;;;;;;1.13;0.80;;;;;;;4.16;100.00;100336.44;5039346;28;20093;-65
2023/03/30 08:41:29;;;;;;;1.42;0.93;;;;;;;4.46;100.00;100339.38;5056229;28;20096;-66
2023/03/30 08:43:59;;;;;;;1.00;0.90;;;;;;;4.34;100.00;100338.06;5058641;28;20155;-65
2023/03/30 08:46:26;;;;;;;0.82;0.65;;;;;;;4.21;100.00;100334.13;5066597;28;20036;-66
2023/03/30 08:48:53;;;;;;;1.08;0.98;;;;;;;4.62;100.00;100331.34;5063298;28;20028;-66
2023/03/30 08:51:18;;;;;;;1.48;0.85;;;;;;;4.60;100.00;100322.72;5062167;28;20482;-66
2023/03/30 08:53:44;;;;;;;0.85;0.60;;;;;;;4.29;100.00;100333.25;5060112;28;20112;-65
2023/03/30 08:56:16;;;;;;;0.90;0.73;;;;;;;4.20;100.00;100310.31;5057022;28;20029;-65
2023/03/30 08:59:01;;;;;;;1.00;0.70;;;;;;;4.23;100.00;100321.44;5063959;28;20045;-66
2023/03/30 09:01:55;;;;;;;0.85;0.60;;;;;;;4.50;100.00;100315.91;5073198;28;20056;-66
2023/03/30 09:04:33;;;;;;;1.17;0.60;;;;;;;4.20;100.00;100311.13;5068859;28;20060;-66
2023/03/30 09:07:20;;;;;;;1.13;0.90;;;;;;;4.18;100.00;100307.84;5073608;28;20442;-65
2023/03/30 09:09:50;;;;;;;1.05;0.90;;;;;;;4.54;100.00;100307.41;5062354;28;20021;-65
2023/03/30 09:12:21;;;;;;;1.33;1.23;;;;;;;4.45;100.00;100309.25;5061083;28;20021;-66
2023/03/30 09:14:59;;;;;;;1.23;0.80;;;;;;;4.51;100.00;100302.41;5056148;28;20033;-66
2023/03/30 09:17:40;;;;;;;1.88;0.85;;;;;;;4.04;100.00;100300.53;5061408;28;20036;-65
2023/03/30 09:20:13;;;;;;;1.02;0.90;;;;;;;4.38;100.00;100302.13;5059148;28;20087;-65
2023/03/30 09:22:42;;;;;;;1.85;0.98;;;;;;;4.63;100.00;100295.69;5057834;28;20028;-66
2023/03/30 09:25:16;;;;;;;0.90;0.57;;;;;;;4.64;100.00;100299.22;5058785;28;20056;-66
2023/03/30 09:27:54;;;;;;;0.80;0.60;;;;;;;4.33;100.00;100296.47;5061064;28;20094;-66
2023/03/30 09:30:24;;;;;;;1.70;0.70;;;;;;;4.24;100.00;100279.69;5063346;28;20097;-66
2023/03/30 09:32:59;;;;;;;1.00;0.80;;;;;;;4.53;100.00;100279.06;5070521;28;20021;-66
2023/03/30 09:35:35;;;;;;;0.90;0.63;;;;;;;4.47;100.00;100282.47;5059847;28;20108;-66
2023/03/30 09:38:02;;;;;;;1.50;0.93;;;;;;;4.73;100.00;100274.16;5061748;28;20443;-66
2023/03/30 09:40:40;;;;;;;0.90;0.60;;;;;;;4.38;100.00;100280.81;5059768;28;20033;-66
2023/03/30 09:43:24;;;;;;;0.63;0.45;;;;;;;3.92;100.00;100269.94;5059279;28;20025;-65
2023/03/30 09:45:50;;;;;;;1.58;0.85;;;;;;;4.09;100.00;100263.59;5061717;28;20152;-66
2023/03/30 09:48:16;;;;;;;3.63;0.85;;;;;;;4.13;100.00;100258.75;5060017;28;20048;-66
2023/03/30 09:50:45;;;;;;;1.15;0.70;;;;;;;4.03;100.00;100244.78;5061472;28;20101;-66
2023/03/30 09:53:26;;;;;;;2.17;0.82;;;;;;;4.27;100.00;100254.53;5043326;28;20441;-66
2023/03/30 09:56:20;;;;;;;1.58;0.60;;;;;;;4.43;100.00;100259.81;5059792;28;20039;-66
2023/03/30 09:58:45;;;;;;;1.25;0.70;;;;;;;4.29;100.00;100258.69;5060348;28;20649;-66
2023/03/30 10:01:15;;;;;;;0.80;0.70;;;;;;;4.50;100.00;100246.63;5060761;28;20107;-66
2023/03/30 10:03:43;;;;;;;0.75;0.57;;;;;;;4.14;100.00;100231.97;5061417;28;20025;-66
2023/03/30 10:06:16;;;;;;;0.80;0.60;;;;;;;4.13;100.00;100243.59;5060702;28;20021;-66
2023/03/30 10:08:49;;;;;;;0.70;0.60;;;;;;;4.28;100.00;100237.56;5060084;28;20040;-66
2023/03/30 10:11:31;;;;;;;0.55;0.52;;;;;;;4.35;100.00;100236.69;5059249;28;20028;-66
2023/03/30 10:13:58;;;;;;;1.10;0.75;;;;;;;4.39;100.00;100229.19;5060501;28;20521;-66
2023/03/30 10:16:26;;;;;;;0.57;0.50;;;;;;;4.34;100.00;100232.38;5059362;28;20108;-66
2023/03/30 10:19:01;;;;;;;1.35;0.88;;;;;;;4.54;100.00;100227.47;5059840;28;20021;-66
2023/03/30 10:21:36;;;;;;;1.60;0.70;;;;;;;4.52;100.00;100218.81;5058555;28;20032;-66
2023/03/30 10:24:20;;;;;;;1.15;0.70;;;;;;;4.43;100.00;100209.19;5059486;28;20124;-66
2023/03/30 10:26:49;;;;;;;1.15;0.65;;;;;;;4.55;100.00;100185.66;5070391;28;20036;-66
2023/03/30 10:29:21;;;;;;;1.30;0.80;;;;;;;4.45;100.00;100212.53;5047796;28;20032;-66
2023/03/30 10:31:51;;;;;;;1.75;0.85;;;;;;;4.63;100.00;100206.94;5060242;28;20114;-66
2023/03/30 10:34:22;;;;;;;1.17;0.70;;;;;;;4.13;100.00;100197.50;5054626;28;20488;-66
2023/03/30 10:36:51;;;;;;;1.08;0.65;;;;;;;4.55;100.00;100201.66;5059048;28;20028;-66
2023/03/30 10:39:23;;;;;;;1.27;0.73;;;;;;;4.16;100.00;100174.03;5061025;28;20399;-66
2023/03/30 10:41:49;;;;;;;1.42;0.75;;;;;;;4.47;100.00;100179.38;5060005;28;20131;-66
2023/03/30 10:44:30;;;;;;;1.17;0.80;;;;;;;4.60;100.00;100193.94;5059381;28;20039;-66
2023/03/30 10:47:24;;;;;;;1.10;0.77;;;;;;;4.52;100.00;100175.34;5059867;28;20024;-66
2023/03/30 10:50:02;;;;;;;2.55;0.70;;;;;;;4.53;100.00;100171.69;5057377;28;20123;-66
2023/03/30 10:52:58;;;;;;;1.10;0.60;;;;;;;4.69;100.00;100176.91;5058279;28;20064;-66
2023/03/30 10:55:38;;;;;;;0.70;0.50;;;;;;;4.27;100.00;100174.63;5057191;28;20029;-67
2023/03/30 10:58:36;;;;;;;0.77;0.57;;;;;;;4.86;100.00;100172.31;5058497;28;20082;-65
2023/03/30 11:01:16;;;;;;;1.40;0.75;;;;;;;4.30;100.00;100163.66;5058021;28;20029;-66
2023/03/30 11:03:47;;;;;;;1.20;0.60;;;;;;;4.37;100.00;100148.63;5059595;28;20029;-66
2023/03/30 11:06:20;;;;;;;0.95;0.60;;;;;;;4.17;100.00;100141.09;5057948;28;20103;-66
2023/03/30 11:08:49;;;;;;;1.90;0.50;;;;;;;4.23;100.00;100150.19;5058887;28;20025;-66
2023/03/30 11:11:39;;;;;;;1.25;0.60;;;;;;;4.70;100.00;100138.59;5057960;28;20044;-66
2023/03/30 11:14:12;;;;;;;1.75;0.90;;;;;;;4.99;100.00;100145.88;5058435;28;20082;-66
2023/03/30 11:17:07;;;;;;;1.17;0.70;;;;;;;4.70;100.00;100142.09;5057932;28;20045;-66
2023/03/30 11:19:43;;;;;;;1.00;0.65;;;;;;;4.87;100.00;100116.16;5056897;28;20080;-66
2023/03/30 11:22:47;;;;;;;2.63;0.60;;;;;;;5.11;100.00;100128.44;5058645;28;20082;-66
2023/03/30 11:25:38;;;;;;;0.88;0.52;;;;;;;4.83;100.00;100112.16;5063289;28;20052;-66
2023/03/30 11:28:25;;;;;;;0.77;0.60;;;;;;;4.97;100.00;100129.25;5070703;28;20021;-66
2023/03/30 11:30:55;;;;;;;0.57;0.50;;;;;;;4.82;100.00;100115.84;5057644;28;20037;-66
2023/03/30 11:33:43;;;;;;;0.63;0.45;;;;;;;4.88;100.00;100109.00;5054608;28;20147;-66
2023/03/30 11:36:19;;;;;;;0.73;0.50;;;;;;;5.27;100.00;100118.66;5057225;28;20025;-66
2023/03/30 11:38:57;;;;;;;0.70;0.60;;;;;;;5.21;100.00;100111.38;5056305;28;20029;-66
2023/03/30 11:41:30;;;;;;;1.02;0.55;;;;;;;5.18;100.00;100110.72;5057788;28;20086;-66
2023/03/30 11:43:56;;;;;;;1.58;0.52;;;;;;;5.31;100.00;100101.28;5056815;28;20028;-66